createdAt,value
2018-09-25T00:01:37.769Z,7.28
2018-09-25T00:04:12.833Z,7.27
2018-09-25T00:06:47.422Z,7.22
2018-09-25T00:09:22.121Z,7.21
2018-09-25T00:11:57.220Z,7.20
2018-09-25T00:14:31.919Z,7.14
2018-09-25T00:17:06.275Z,7.04
2018-09-25T00:19:40.802Z,6.97
2018-09-25T00:22:15.360Z,6.91
2018-09-25T00:24:50.107Z,6.86
2018-09-25T00:27:24.669Z,6.81
2018-09-25T00:29:59.323Z,6.75
2018-09-25T00:32:33.953Z,6.72
2018-09-25T00:35:08.447Z,6.70
2018-09-25T00:37:43.116Z,6.67
2018-09-25T00:40:17.492Z,6.69
2018-09-25T00:42:51.900Z,6.69
2018-09-25T00:45:26.485Z,6.69
2018-09-25T00:48:00.879Z,6.72
2018-09-25T00:50:35.547Z,6.76
2018-09-25T00:53:10.382Z,6.78
2018-09-25T00:55:44.885Z,6.76
2018-09-25T00:58:19.397Z,6.75
2018-09-25T01:00:54.153Z,6.76
2018-09-25T01:03:28.743Z,6.76
2018-09-25T01:06:03.209Z,6.78
2018-09-25T01:08:37.781Z,6.79
2018-09-25T01:11:12.426Z,6.80
2018-09-25T01:13:46.819Z,6.82
2018-09-25T01:16:21.430Z,6.81
2018-09-25T01:18:55.950Z,6.79
2018-09-25T01:21:31.241Z,6.81
2018-09-25T01:24:06.241Z,6.79
2018-09-25T01:26:40.890Z,6.79
2018-09-25T01:29:15.444Z,6.76
2018-09-25T01:31:50.050Z,6.74
2018-09-25T01:34:24.574Z,6.72
2018-09-25T01:36:59.210Z,6.72
2018-09-25T01:39:34.562Z,6.71
2018-09-25T01:42:09.394Z,6.69
2018-09-25T01:44:43.890Z,6.70
2018-09-25T01:47:18.543Z,6.68
2018-09-25T01:49:52.929Z,6.70
2018-09-25T01:52:27.602Z,6.70
2018-09-25T01:55:03.223Z,6.71
2018-09-25T01:57:38.616Z,6.73
2018-09-25T02:00:13.268Z,6.73
2018-09-25T02:02:47.996Z,6.72
2018-09-25T02:05:22.494Z,6.74
2018-09-25T02:07:56.910Z,6.75
2018-09-25T02:10:31.335Z,6.75
2018-09-25T02:13:05.735Z,6.73
2018-09-25T02:15:40.405Z,6.72
2018-09-25T02:18:15.251Z,6.72
2018-09-25T02:20:49.772Z,6.70
2018-09-25T02:23:24.865Z,6.61
2018-09-25T02:25:59.582Z,6.61
2018-09-25T02:28:34.121Z,6.50
2018-09-25T02:31:08.464Z,6.46
2018-09-25T02:33:43.303Z,6.40
2018-09-25T02:36:17.686Z,6.31
2018-09-25T02:38:52.373Z,6.28
2018-09-25T02:41:26.989Z,6.25
2018-09-25T02:44:01.324Z,6.23
2018-09-25T02:46:35.930Z,6.24
2018-09-25T02:49:10.428Z,6.20
2018-09-25T02:51:44.789Z,6.20
2018-09-25T02:54:19.162Z,6.20
2018-09-25T02:56:53.849Z,6.21
2018-09-25T02:59:28.858Z,6.19
2018-09-25T03:02:03.842Z,6.25
2018-09-25T03:04:38.529Z,6.25
2018-09-25T03:07:12.967Z,6.27
2018-09-25T03:09:47.409Z,6.27
2018-09-25T03:12:22.018Z,6.30
2018-09-25T03:14:56.509Z,6.31
2018-09-25T03:17:32.114Z,6.30
2018-09-25T03:20:06.567Z,6.33
2018-09-25T03:22:41.135Z,6.31
2018-09-25T03:25:19.465Z,6.34
2018-09-25T03:27:53.981Z,6.34
2018-09-25T03:30:28.758Z,6.36
2018-09-25T03:33:03.293Z,6.39
2018-09-25T03:35:38.005Z,6.40
2018-09-25T03:38:12.602Z,6.40
2018-09-25T03:40:47.139Z,6.39
2018-09-25T03:43:21.633Z,6.38
2018-09-25T03:45:56.140Z,6.35
2018-09-25T03:48:30.723Z,6.34
2018-09-25T03:51:05.239Z,6.32
2018-09-25T03:53:39.756Z,6.31
2018-09-25T03:56:14.601Z,6.26
2018-09-25T03:58:49.201Z,6.25
2018-09-25T04:01:24.766Z,6.24
2018-09-25T04:03:59.267Z,6.26
2018-09-25T04:06:33.693Z,6.26
2018-09-25T04:09:08.268Z,6.25
2018-09-25T04:11:42.922Z,6.28
2018-09-25T04:14:17.460Z,6.27
2018-09-25T04:16:52.123Z,6.26
2018-09-25T04:19:26.790Z,6.28
2018-09-25T04:22:01.691Z,6.27
2018-09-25T04:24:36.218Z,6.30
2018-09-25T04:27:11.063Z,6.30
2018-09-25T04:29:45.789Z,6.31
2018-09-25T04:32:20.494Z,6.31
2018-09-25T04:34:55.578Z,6.34
2018-09-25T04:37:30.183Z,6.33
2018-09-25T04:40:04.566Z,6.36
2018-09-25T04:42:39.602Z,6.42
2018-09-25T04:45:14.041Z,6.43
2018-09-25T04:47:48.734Z,6.44
2018-09-25T04:50:23.177Z,6.42
2018-09-25T04:52:58.465Z,6.38
2018-09-25T04:55:33.025Z,6.36
2018-09-25T04:58:07.554Z,6.39
2018-09-25T05:00:41.951Z,6.40
2018-09-25T05:03:16.577Z,6.42
2018-09-25T05:05:50.921Z,6.45
2018-09-25T05:08:25.400Z,6.43
2018-09-25T05:10:59.951Z,6.46
2018-09-25T05:13:35.724Z,6.44
2018-09-25T05:16:10.337Z,6.43
2018-09-25T05:18:44.734Z,6.44
2018-09-25T05:21:19.485Z,6.43
2018-09-25T05:23:54.138Z,6.44
2018-09-25T05:26:28.600Z,6.45
2018-09-25T05:29:05.255Z,6.46
2018-09-25T05:31:39.723Z,6.38
2018-09-25T05:34:14.294Z,6.50
2018-09-25T05:36:48.773Z,6.60
2018-09-25T05:39:23.369Z,6.71
2018-09-25T05:41:57.934Z,6.74
2018-09-25T05:44:32.444Z,6.77
2018-09-25T05:47:06.994Z,6.76
2018-09-25T05:49:42.722Z,6.75
2018-09-25T05:52:17.129Z,6.77
2018-09-25T05:54:51.665Z,6.76
2018-09-25T05:57:31.736Z,6.78
2018-09-25T06:00:06.326Z,6.75
2018-09-25T06:02:41.189Z,6.76
2018-09-25T06:05:15.885Z,6.80
2018-09-25T06:07:51.384Z,6.80
2018-09-25T06:10:26.188Z,6.80
2018-09-25T06:13:00.607Z,6.86
2018-09-25T06:15:35.974Z,6.90
2018-09-25T06:18:11.875Z,6.97
2018-09-25T06:20:47.686Z,7.07
2018-09-25T06:23:22.151Z,7.16
2018-09-25T06:25:56.894Z,7.22
2018-09-25T06:28:31.342Z,7.28
2018-09-25T06:31:06.078Z,7.34
2018-09-25T06:33:41.175Z,7.36
2018-09-25T06:36:15.616Z,7.43
2018-09-25T06:38:50.214Z,7.52
2018-09-25T06:41:24.741Z,7.63
2018-09-25T06:43:59.381Z,7.75
2018-09-25T06:46:34.001Z,7.89
2018-09-25T06:49:08.507Z,8.19
2018-09-25T06:51:43.258Z,8.62
2018-09-25T06:54:17.938Z,8.92
2018-09-25T06:56:52.609Z,9.01
2018-09-25T06:59:27.133Z,9.06
2018-09-25T07:02:01.684Z,9.06
2018-09-25T07:04:36.162Z,9.08
2018-09-25T07:07:11.237Z,9.08
2018-09-25T07:09:46.134Z,9.17
2018-09-25T07:12:20.967Z,9.23
2018-09-25T07:14:55.572Z,9.32
2018-09-25T07:17:30.405Z,9.40
2018-09-25T07:20:05.045Z,9.52
2018-09-25T07:22:39.491Z,9.65
2018-09-25T07:25:14.094Z,9.77
2018-09-25T07:27:48.775Z,9.89
2018-09-25T07:30:23.439Z,10.03
2018-09-25T07:32:58.130Z,10.06
2018-09-25T07:35:32.777Z,10.21
2018-09-25T07:38:07.650Z,10.31
2018-09-25T07:40:42.257Z,10.35
2018-09-25T07:43:16.773Z,10.41
2018-09-25T07:45:51.405Z,10.45
2018-09-25T07:48:25.911Z,10.47
2018-09-25T07:51:00.637Z,10.55
2018-09-25T07:53:35.322Z,10.62
2018-09-25T07:56:09.841Z,10.72
2018-09-25T07:58:44.383Z,10.85
2018-09-25T08:01:18.912Z,10.94
2018-09-25T08:03:53.702Z,11.06
2018-09-25T08:06:28.117Z,11.17
2018-09-25T08:09:02.825Z,11.29
2018-09-25T08:11:37.355Z,11.37
2018-09-25T08:14:12.180Z,11.40
2018-09-25T08:16:46.646Z,11.56
2018-09-25T08:19:21.139Z,11.72
2018-09-25T08:21:55.477Z,11.82
2018-09-25T08:24:30.992Z,11.93
2018-09-25T08:27:05.433Z,11.99
2018-09-25T08:29:40.166Z,11.97
2018-09-25T08:32:14.698Z,12.01
2018-09-25T08:34:49.271Z,11.93
2018-09-25T08:37:24.042Z,11.94
2018-09-25T08:39:58.645Z,11.95
2018-09-25T08:42:33.091Z,12.38
2018-09-25T08:45:07.563Z,13.46
2018-09-25T08:47:42.126Z,14.61
2018-09-25T08:50:16.791Z,15.52
2018-09-25T08:52:51.357Z,16.32
2018-09-25T08:55:25.993Z,17.15
2018-09-25T08:58:00.492Z,17.53
2018-09-25T09:00:35.057Z,18.13
2018-09-25T09:03:09.474Z,18.69
2018-09-25T09:05:43.998Z,19.44
2018-09-25T09:08:18.499Z,19.29
2018-09-25T09:10:53.104Z,18.60
2018-09-25T09:13:27.668Z,19.48
2018-09-25T09:16:02.207Z,20.78
2018-09-25T09:18:36.660Z,20.63
2018-09-25T09:21:11.301Z,20.74
2018-09-25T09:23:45.869Z,21.58
2018-09-25T09:26:20.474Z,21.64
2018-09-25T09:28:54.973Z,21.61
2018-09-25T09:31:29.425Z,20.26
2018-09-25T09:34:03.914Z,19.42
2018-09-25T09:36:38.351Z,19.72
2018-09-25T09:39:14.014Z,19.73
2018-09-25T09:41:48.888Z,20.34
2018-09-25T09:44:23.286Z,21.99
2018-09-25T09:47:01.844Z,23.13
2018-09-25T09:49:36.208Z,22.98
2018-09-25T09:52:10.676Z,23.13
2018-09-25T09:54:45.234Z,23.39
2018-09-25T09:57:20.951Z,23.35
2018-09-25T09:59:55.410Z,23.57
2018-09-25T10:02:29.930Z,23.71
2018-09-25T10:05:04.463Z,20.37
2018-09-25T10:07:39.197Z,21.89
2018-09-25T10:10:13.733Z,22.70
2018-09-25T10:12:48.419Z,23.35
2018-09-25T10:15:22.782Z,21.80
2018-09-25T10:17:57.433Z,21.51
2018-09-25T10:20:31.957Z,20.34
2018-09-25T10:23:06.603Z,20.85
2018-09-25T10:25:41.302Z,21.53
2018-09-25T10:28:15.853Z,21.97
2018-09-25T10:30:50.329Z,22.65
2018-09-25T10:33:26.966Z,22.73
2018-09-25T10:36:01.611Z,22.56
2018-09-25T10:38:36.288Z,22.35
2018-09-25T10:41:11.022Z,21.24
2018-09-25T10:43:45.767Z,20.70
2018-09-25T10:46:20.325Z,19.95
2018-09-25T10:48:54.953Z,20.07
2018-09-25T10:51:29.467Z,20.11
2018-09-25T10:54:04.949Z,20.48
2018-09-25T10:56:39.558Z,20.57
2018-09-25T10:59:14.243Z,21.07
2018-09-25T11:01:49.803Z,20.40
2018-09-25T11:04:24.406Z,20.66
2018-09-25T11:06:58.988Z,20.93
2018-09-25T11:09:33.781Z,21.38
2018-09-25T11:12:08.296Z,21.95
2018-09-25T11:14:42.781Z,22.17
2018-09-25T11:17:17.106Z,22.62
2018-09-25T11:19:51.781Z,22.71
2018-09-25T11:22:26.442Z,22.59
2018-09-25T11:25:01.038Z,22.60
2018-09-25T11:27:35.427Z,22.44
2018-09-25T11:30:10.127Z,21.43
2018-09-25T11:32:44.652Z,21.83
2018-09-25T11:35:20.287Z,21.55
2018-09-25T11:37:54.847Z,21.42
2018-09-25T11:40:29.435Z,22.19
2018-09-25T11:43:04.904Z,22.21
2018-09-25T11:45:39.508Z,22.59
2018-09-25T11:48:14.098Z,21.92
2018-09-25T11:50:48.566Z,21.44
2018-09-25T11:53:23.152Z,21.46
2018-09-25T11:55:58.666Z,21.28
2018-09-25T11:58:33.358Z,21.66
2018-09-25T12:01:07.985Z,22.26
2018-09-25T12:03:42.683Z,22.05
2018-09-25T12:06:17.132Z,20.61
2018-09-25T12:08:51.715Z,20.19
2018-09-25T12:11:26.181Z,20.42
2018-09-25T12:14:00.769Z,20.41
2018-09-25T12:16:35.283Z,20.18
2018-09-25T12:19:09.806Z,20.08
2018-09-25T12:21:44.448Z,19.58
2018-09-25T12:24:19.104Z,19.21
2018-09-25T12:26:53.749Z,19.84
2018-09-25T12:29:29.563Z,20.66
2018-09-25T12:32:04.222Z,21.03
2018-09-25T12:34:38.913Z,21.31
2018-09-25T12:37:13.540Z,21.57
2018-09-25T12:39:47.938Z,21.61
2018-09-25T12:42:22.950Z,21.57
2018-09-25T12:47:30.821Z,22.15
2018-09-25T12:50:05.448Z,22.05
2018-09-25T12:52:40.113Z,22.77
2018-09-25T12:55:14.533Z,22.33
2018-09-25T12:57:49.014Z,22.45
2018-09-25T13:00:23.504Z,22.06
2018-09-25T13:02:58.144Z,21.22
2018-09-25T13:05:32.590Z,20.28
2018-09-25T13:08:07.242Z,19.66
2018-09-25T13:10:41.719Z,19.12
2018-09-25T13:13:16.265Z,18.64
2018-09-25T13:15:50.859Z,18.20
2018-09-25T13:18:29.498Z,17.97
2018-09-25T13:21:04.110Z,17.69
2018-09-25T13:23:38.649Z,17.43
2018-09-25T13:26:13.229Z,17.52
2018-09-25T13:28:48.061Z,17.85
2018-09-25T13:31:22.626Z,17.91
2018-09-25T13:33:57.335Z,17.73
2018-09-25T13:36:31.729Z,17.63
2018-09-25T13:39:06.385Z,17.46
2018-09-25T13:41:40.822Z,17.41
2018-09-25T13:44:15.351Z,17.31
2018-09-25T13:46:49.873Z,17.26
2018-09-25T13:49:24.476Z,17.33
2018-09-25T13:51:58.886Z,17.31
2018-09-25T13:54:33.518Z,17.47
2018-09-25T13:57:08.242Z,17.39
2018-09-25T13:59:42.947Z,17.36
2018-09-25T14:02:17.596Z,17.29
2018-09-25T14:04:52.253Z,17.20
2018-09-25T14:07:26.931Z,17.39
2018-09-25T14:10:01.567Z,17.28
2018-09-25T14:12:36.216Z,17.35
2018-09-25T14:15:10.962Z,17.29
2018-09-25T14:17:45.407Z,17.36
2018-09-25T14:20:20.307Z,17.41
2018-09-25T14:22:54.961Z,17.26
2018-09-25T14:25:29.682Z,17.18
2018-09-25T14:28:05.397Z,17.11
2018-09-25T14:30:40.074Z,17.05
2018-09-25T14:33:14.660Z,17.13
2018-09-25T14:35:49.535Z,16.85
2018-09-25T14:38:24.044Z,16.53
2018-09-25T14:40:58.645Z,16.22
2018-09-25T14:43:33.131Z,16.04
2018-09-25T14:46:07.758Z,15.87
2018-09-25T14:48:42.244Z,15.83
2018-09-25T14:51:16.932Z,15.90
2018-09-25T14:53:51.416Z,15.94
2018-09-25T14:56:26.038Z,15.86
2018-09-25T14:59:00.705Z,15.76
2018-09-25T15:01:35.333Z,15.77
2018-09-25T15:04:10.009Z,15.93
2018-09-25T15:06:44.626Z,15.97
2018-09-25T15:09:19.236Z,15.88
2018-09-25T15:11:53.882Z,15.90
2018-09-25T15:14:29.475Z,15.81
2018-09-25T15:17:04.243Z,15.83
2018-09-25T15:19:38.850Z,15.76
2018-09-25T15:22:13.646Z,15.70
2018-09-25T15:24:49.512Z,15.64
2018-09-25T15:27:24.107Z,15.63
2018-09-25T15:29:58.409Z,15.68
2018-09-25T15:32:33.022Z,15.64
2018-09-25T15:35:07.349Z,15.57
2018-09-25T15:37:41.943Z,15.48
2018-09-25T15:40:18.699Z,15.46
2018-09-25T15:42:53.133Z,15.34
2018-09-25T15:45:27.702Z,15.38
2018-09-25T15:48:02.921Z,15.29
2018-09-25T15:50:37.228Z,15.25
2018-09-25T15:53:12.161Z,15.23
2018-09-25T15:55:46.686Z,15.17
2018-09-25T15:58:21.303Z,15.10
2018-09-25T16:00:55.861Z,14.95
2018-09-25T16:03:30.572Z,14.91
2018-09-25T16:06:04.872Z,14.91
2018-09-25T16:08:39.390Z,14.91
2018-09-25T16:11:14.206Z,14.96
2018-09-25T16:13:48.743Z,14.97
2018-09-25T16:16:23.345Z,14.93
2018-09-25T16:18:58.044Z,14.97
2018-09-25T16:21:32.695Z,14.94
2018-09-25T16:24:07.329Z,14.91
2018-09-25T16:26:41.867Z,14.92
2018-09-25T16:29:16.456Z,14.89
2018-09-25T16:31:51.109Z,14.89
2018-09-25T16:34:25.531Z,14.86
2018-09-25T16:37:00.020Z,14.80
2018-09-25T16:39:35.624Z,14.82
2018-09-25T16:42:10.126Z,14.79
2018-09-25T16:44:44.815Z,14.81
2018-09-25T16:47:19.429Z,14.77
2018-09-25T16:49:53.890Z,14.76
2018-09-25T16:52:28.437Z,14.71
2018-09-25T16:55:03.042Z,14.76
2018-09-25T16:57:37.901Z,14.81
2018-09-25T17:00:12.649Z,14.76
2018-09-25T17:02:48.530Z,14.71
2018-09-25T17:05:23.078Z,14.65
2018-09-25T17:07:57.816Z,14.55
2018-09-25T17:10:32.659Z,14.47
2018-09-25T17:13:07.453Z,14.35
2018-09-25T17:15:41.994Z,14.27
2018-09-25T17:18:16.552Z,14.19
2018-09-25T17:20:51.305Z,14.08
2018-09-25T17:23:25.930Z,14.03
2018-09-25T17:26:00.519Z,13.97
2018-09-25T17:28:35.574Z,13.97
2018-09-25T17:31:10.164Z,13.89
2018-09-25T17:33:45.869Z,13.89
2018-09-25T17:36:20.555Z,13.85
2018-09-25T17:38:55.139Z,13.77
2018-09-25T17:41:29.730Z,13.73
2018-09-25T17:44:04.438Z,13.71
2018-09-25T17:46:39.161Z,13.67
2018-09-25T17:49:13.894Z,13.59
2018-09-25T17:51:49.717Z,13.57
2018-09-25T17:54:24.146Z,13.49
2018-09-25T17:56:58.642Z,13.42
2018-09-25T17:59:33.218Z,13.37
2018-09-25T18:02:07.960Z,13.29
2018-09-25T18:04:42.564Z,13.20
2018-09-25T18:07:17.277Z,13.16
2018-09-25T18:09:51.933Z,13.08
2018-09-25T18:12:26.674Z,13.02
2018-09-25T18:15:03.679Z,12.93
2018-09-25T18:17:38.554Z,12.81
2018-09-25T18:20:13.125Z,12.76
2018-09-25T18:22:47.874Z,12.68
2018-09-25T18:25:22.593Z,12.64
2018-09-25T18:27:57.424Z,12.58
2018-09-25T18:30:32.011Z,12.55
2018-09-25T18:33:06.722Z,12.54
2018-09-25T18:35:42.288Z,12.55
2018-09-25T18:38:16.953Z,12.51
2018-09-25T18:40:51.399Z,12.47
2018-09-25T18:43:26.049Z,12.43
2018-09-25T18:46:00.719Z,12.42
2018-09-25T18:48:35.214Z,12.38
2018-09-25T18:51:09.740Z,12.37
2018-09-25T18:53:44.475Z,12.31
2018-09-25T18:56:26.789Z,12.29
2018-09-25T18:59:01.883Z,12.32
2018-09-25T19:01:36.597Z,12.25
2018-09-25T19:04:11.590Z,12.23
2018-09-25T19:06:46.042Z,12.20
2018-09-25T19:09:20.694Z,12.18
2018-09-25T19:11:56.160Z,12.16
2018-09-25T19:14:30.802Z,12.10
2018-09-25T19:17:05.540Z,12.04
2018-09-25T19:19:40.229Z,11.98
2018-09-25T19:22:14.744Z,12.00
2018-09-25T19:24:49.402Z,11.98
2018-09-25T19:27:23.990Z,11.97
2018-09-25T19:29:58.773Z,11.92
2018-09-25T19:32:33.355Z,11.89
2018-09-25T19:35:07.970Z,11.85
2018-09-25T19:37:42.662Z,11.87
2018-09-25T19:40:17.288Z,11.71
2018-09-25T19:42:52.000Z,11.67
2018-09-25T19:45:26.567Z,11.63
2018-09-25T19:48:01.118Z,11.70
2018-09-25T19:50:35.822Z,11.72
2018-09-25T19:53:10.314Z,11.73
2018-09-25T19:55:44.941Z,11.68
2018-09-25T19:58:19.458Z,11.66
2018-09-25T20:02:19.372Z,11.62
2018-09-25T20:04:54.039Z,11.49
2018-09-25T20:07:28.529Z,11.41
2018-09-25T20:10:03.150Z,11.41
2018-09-25T20:12:37.655Z,11.42
2018-09-25T20:15:13.246Z,11.39
2018-09-25T20:17:47.877Z,11.36
2018-09-25T20:20:22.493Z,11.40
2018-09-25T20:22:57.060Z,11.35
2018-09-25T20:25:31.441Z,11.23
2018-09-25T20:28:06.029Z,11.30
2018-09-25T20:30:40.768Z,11.35
2018-09-25T20:33:15.482Z,11.37
2018-09-25T20:35:52.063Z,11.40
2018-09-25T20:38:26.589Z,11.38
2018-09-25T20:41:01.251Z,11.31
2018-09-25T20:43:35.836Z,11.34
2018-09-25T20:46:10.600Z,11.23
2018-09-25T20:48:46.238Z,11.15
2018-09-25T20:51:20.877Z,11.02
2018-09-25T20:53:55.354Z,11.18
2018-09-25T20:56:29.923Z,11.25
2018-09-25T20:59:08.903Z,11.24
2018-09-25T21:01:43.491Z,11.24
2018-09-25T21:04:18.156Z,11.22
2018-09-25T21:06:52.958Z,11.23
2018-09-25T21:09:28.496Z,11.11
2018-09-25T21:12:02.969Z,11.15
2018-09-25T21:14:37.415Z,11.19
2018-09-25T21:17:13.423Z,11.12
2018-09-25T21:19:49.026Z,11.09
2018-09-25T21:22:23.541Z,11.11
2018-09-25T21:24:58.265Z,11.10
2018-09-25T21:27:32.910Z,11.10
2018-09-25T21:30:07.482Z,11.12
2018-09-25T21:32:41.947Z,11.11
2018-09-25T21:35:16.521Z,11.12
2018-09-25T21:37:51.412Z,11.03
2018-09-25T21:40:25.924Z,10.94
2018-09-25T21:43:00.462Z,10.95
2018-09-25T21:45:35.081Z,10.99
2018-09-25T21:48:09.905Z,11.00
2018-09-25T21:50:44.500Z,10.99
2018-09-25T21:53:19.151Z,10.96
2018-09-25T21:55:53.842Z,10.93
2018-09-25T21:58:28.570Z,10.97
2018-09-25T22:01:03.699Z,10.98
2018-09-25T22:03:42.215Z,10.94
2018-09-25T22:06:17.173Z,10.97
2018-09-25T22:08:51.914Z,10.92
2018-09-25T22:11:26.584Z,10.95
2018-09-25T22:14:01.166Z,10.93
2018-09-25T22:16:35.917Z,10.94
2018-09-25T22:19:10.632Z,10.93
2018-09-25T22:21:45.109Z,10.96
2018-09-25T22:24:19.637Z,10.97
2018-09-25T22:26:54.158Z,10.95
2018-09-25T22:29:28.742Z,10.91
2018-09-25T22:32:03.342Z,10.93
2018-09-25T22:34:38.357Z,11.00
2018-09-25T22:37:13.094Z,11.06
2018-09-25T22:39:47.727Z,11.07
2018-09-25T22:42:22.475Z,11.13
2018-09-25T22:44:57.018Z,11.10
2018-09-25T22:47:31.744Z,11.13
2018-09-25T22:50:06.334Z,11.16
2018-09-25T22:52:40.896Z,11.12
2018-09-25T22:55:15.364Z,11.15
2018-09-25T22:57:49.952Z,11.16
2018-09-25T23:00:25.692Z,11.24
2018-09-25T23:03:00.402Z,11.25
2018-09-25T23:05:34.956Z,11.23
2018-09-25T23:08:10.598Z,11.19
2018-09-25T23:10:46.190Z,11.18
2018-09-25T23:13:20.757Z,11.20
2018-09-25T23:15:55.259Z,11.19
2018-09-25T23:18:29.917Z,11.14
2018-09-25T23:21:04.599Z,11.13
2018-09-25T23:23:38.969Z,11.06
2018-09-25T23:26:14.531Z,11.10
2018-09-25T23:28:50.225Z,11.14
2018-09-25T23:31:24.564Z,11.11
2018-09-25T23:33:59.186Z,11.08
2018-09-25T23:36:33.907Z,11.11
2018-09-25T23:39:09.366Z,11.14
2018-09-25T23:41:47.909Z,11.15
2018-09-25T23:44:22.277Z,11.13
2018-09-25T23:47:55.640Z,11.10
2018-09-25T23:50:30.517Z,10.89
2018-09-25T23:54:03.915Z,10.95
2018-09-25T23:57:06.769Z,10.91
